Time;durP1;ratioP1;P1;durP2;ratioP2;P2;SDS_P1;SDS_P2;PMS_P1;PMS_P2;Temp;Humidity;BMP_temperature;BMP_pressure;BME280_temperature;BME280_humidity;BME280_pressure;Samples;Min_cycle;Max_cycle;Signal;HPM_P1;HPM_P2
2021/08/23 00:00:00;;;;;;;1.60;1.30;;;17.20;99.90;;;;;;5039626;28;20222;-89
2021/08/23 00:02:26;;;;;;;1.63;1.47;;;17.30;99.90;;;;;;5028419;28;20687;-90
2021/08/23 00:04:52;;;;;;;1.83;1.40;;;17.30;99.90;;;;;;5028927;28;20313;-88
2021/08/23 00:07:17;;;;;;;6.17;2.13;;;17.20;99.90;;;;;;5012098;28;20745;-90
2021/08/23 00:09:43;;;;;;;2.63;1.70;;;17.10;99.90;;;;;;5012619;28;20191;-88
2021/08/23 00:12:09;;;;;;;4.93;1.67;;;17.10;99.90;;;;;;5014502;28;20194;-89
2021/08/23 00:14:35;;;;;;;5.90;1.60;;;17.10;99.90;;;;;;5029147;28;20229;-89
2021/08/23 00:17:01;;;;;;;2.97;1.33;;;17.00;99.90;;;;;;5028729;28;20225;-89
2021/08/23 00:19:26;;;;;;;5.80;1.80;;;17.00;99.90;;;;;;5027815;28;20215;-90
2021/08/23 00:22:00;;;;;;;1.90;1.70;;;16.90;99.90;;;;;;5029054;28;22600;-89
2021/08/23 00:24:27;;;;;;;1.80;1.53;;;16.90;99.90;;;;;;5015121;28;20236;-90
2021/08/23 00:26:58;;;;;;;3.23;1.53;;;16.90;99.90;;;;;;5038325;28;20214;-90
2021/08/23 00:29:25;;;;;;;4.83;1.83;;;16.80;99.90;;;;;;5028347;28;20629;-89
2021/08/23 00:31:51;;;;;;;1.80;1.63;;;16.70;99.90;;;;;;5036620;28;20240;-90
2021/08/23 00:34:17;;;;;;;5.37;1.50;;;16.70;99.90;;;;;;5017899;28;20690;-90
2021/08/23 00:36:45;;;;;;;7.03;1.57;;;16.70;99.90;;;;;;5024088;28;20281;-90
2021/08/23 00:39:14;;;;;;;1.97;1.33;;;16.70;99.90;;;;;;5024368;28;20187;-90
2021/08/23 00:41:41;;;;;;;3.13;1.73;;;16.60;99.90;;;;;;5022887;28;20309;-89
2021/08/23 00:44:08;;;;;;;4.23;1.23;;;16.60;99.90;;;;;;5032479;28;20271;-89
2021/08/23 00:46:37;;;;;;;2.40;1.73;;;16.60;99.90;;;;;;5023954;28;20225;-91
2021/08/23 00:49:04;;;;;;;3.17;2.03;;;16.60;99.90;;;;;;5023845;28;20241;-90
2021/08/23 00:51:30;;;;;;;11.87;1.60;;;16.60;99.90;;;;;;5032573;28;20570;-90
2021/08/23 00:53:56;;;;;;;2.00;1.17;;;16.60;99.90;;;;;;5012548;28;20227;-89
2021/08/23 00:56:22;;;;;;;2.73;1.83;;;16.70;99.90;;;;;;5022781;28;20232;-90
2021/08/23 00:58:51;;;;;;;3.83;1.93;;;16.70;99.90;;;;;;5031897;28;21029;-90
2021/08/23 01:02:01;;;;;;;2.37;1.33;;;16.70;99.90;;;;;;5030893;28;20223;-90
2021/08/23 01:04:35;;;;;;;2.43;1.37;;;16.70;99.90;;;;;;4943636;28;20224;-89
2021/08/23 01:07:04;;;;;;;4.07;1.87;;;16.80;99.90;;;;;;5023175;28;20236;-90
2021/08/23 01:09:32;;;;;;;8.40;1.80;;;16.90;99.90;;;;;;5022684;28;20214;-90
2021/08/23 01:11:59;;;;;;;3.60;1.60;;;16.90;99.90;;;;;;5027950;28;20242;-90
2021/08/23 01:14:25;;;;;;;1.77;1.67;;;16.90;99.90;;;;;;5007022;28;20279;-90
2021/08/23 01:16:52;;;;;;;4.70;1.30;;;17.00;99.90;;;;;;5011398;28;20737;-90
2021/08/23 01:19:21;;;;;;;3.00;1.87;;;17.00;99.90;;;;;;5028207;28;20505;-90
2021/08/23 01:21:49;;;;;;;2.97;2.00;;;17.00;99.90;;;;;;5035005;28;20289;-90
2021/08/23 01:24:15;;;;;;;5.50;1.60;;;17.00;99.90;;;;;;5028114;28;20186;-89
2021/08/23 01:26:45;;;;;;;2.40;1.53;;;17.00;99.90;;;;;;5027841;28;20244;-90
2021/08/23 01:29:28;;;;;;;3.63;1.60;;;17.10;99.90;;;;;;5036250;28;20593;-90
2021/08/23 01:32:12;;;;;;;1.67;1.20;;;17.10;99.90;;;;;;5035660;28;20275;-90
2021/08/23 01:34:39;;;;;;;2.03;1.37;;;17.10;99.90;;;;;;5036054;28;20214;-91
2021/08/23 01:37:05;;;;;;;5.00;1.80;;;17.10;99.90;;;;;;5011310;28;20222;-90
2021/08/23 01:39:32;;;;;;;3.37;1.53;;;17.10;99.90;;;;;;5013049;28;20276;-90
2021/08/23 01:42:01;;;;;;;1.80;1.20;;;17.00;99.90;;;;;;5027685;28;20241;-91
2021/08/23 01:44:27;;;;;;;1.77;1.60;;;17.00;99.90;;;;;;5032789;28;20213;-90
2021/08/23 01:46:53;;;;;;;3.03;1.60;;;16.90;99.90;;;;;;5027676;28;20803;-90
2021/08/23 01:49:19;;;;;;;4.10;1.37;;;16.90;99.90;;;;;;5027589;28;20210;-90
2021/08/23 01:51:45;;;;;;;2.10;1.47;;;16.90;99.90;;;;;;5010829;28;20185;-90
2021/08/23 01:54:10;;;;;;;1.70;1.60;;;16.80;99.90;;;;;;5010943;28;20213;-90
2021/08/23 01:56:36;;;;;;;4.83;1.60;;;16.80;99.90;;;;;;5010587;28;20321;-90
2021/08/23 01:59:03;;;;;;;1.37;1.00;;;16.70;99.90;;;;;;5010553;28;20229;-90
2021/08/23 02:01:31;;;;;;;1.87;1.40;;;16.70;99.90;;;;;;5035202;28;20225;-91
2021/08/23 02:03:57;;;;;;;3.63;1.50;;;16.70;99.90;;;;;;5034607;28;20308;-90
2021/08/23 02:06:23;;;;;;;3.80;1.27;;;16.60;99.90;;;;;;5037623;28;20598;-90
2021/08/23 02:08:50;;;;;;;3.20;1.43;;;16.50;99.90;;;;;;5035487;28;20221;-90
2021/08/23 02:11:17;;;;;;;1.43;1.33;;;16.50;99.90;;;;;;5026499;28;20237;-90
2021/08/23 02:13:43;;;;;;;1.73;1.60;;;16.50;99.90;;;;;;5036523;28;20587;-90
2021/08/23 02:16:09;;;;;;;1.50;1.30;;;16.50;99.90;;;;;;5026936;28;20210;-90
2021/08/23 02:18:35;;;;;;;1.67;1.57;;;16.40;99.90;;;;;;5034167;28;20187;-90
2021/08/23 02:21:01;;;;;;;3.63;1.83;;;16.50;99.90;;;;;;5010483;28;20193;-89
2021/08/23 02:23:27;;;;;;;3.10;1.63;;;16.40;99.90;;;;;;5027076;28;20216;-90
2021/08/23 02:25:54;;;;;;;1.70;1.10;;;16.40;99.90;;;;;;5009670;28;20209;-90
2021/08/23 02:28:20;;;;;;;1.27;1.00;;;16.30;99.90;;;;;;5036438;28;20226;-90
2021/08/23 02:30:46;;;;;;;3.80;2.10;;;16.30;99.90;;;;;;5027407;28;20767;-90
2021/08/23 02:33:11;;;;;;;1.83;1.50;;;16.30;99.90;;;;;;5019503;28;20186;-90
2021/08/23 02:35:37;;;;;;;4.70;1.67;;;16.30;99.90;;;;;;5026597;28;20217;-89
2021/08/23 02:38:03;;;;;;;1.83;1.50;;;16.20;99.90;;;;;;5011049;28;20217;-90
2021/08/23 02:40:29;;;;;;;1.43;0.93;;;16.20;99.90;;;;;;5010361;28;20264;-90
2021/08/23 02:42:55;;;;;;;1.90;1.30;;;16.20;99.90;;;;;;5027004;28;20625;-90
2021/08/23 02:45:21;;;;;;;2.60;1.13;;;16.20;99.90;;;;;;5028165;28;20212;-90
2021/08/23 02:47:46;;;;;;;8.33;2.27;;;16.20;99.90;;;;;;5010806;28;20220;-90
2021/08/23 02:50:12;;;;;;;1.73;1.23;;;16.10;99.90;;;;;;5010174;28;20213;-90
2021/08/23 02:52:38;;;;;;;3.13;1.33;;;16.10;99.90;;;;;;5026553;28;20694;-89
2021/08/23 02:55:05;;;;;;;4.47;1.73;;;16.10;99.90;;;;;;5026626;28;20256;-89
2021/08/23 02:57:30;;;;;;;2.60;1.13;;;16.10;99.90;;;;;;5033758;28;20178;-89
2021/08/23 02:59:56;;;;;;;4.20;1.70;;;16.00;99.90;;;;;;5009755;28;21570;-89
2021/08/23 03:02:22;;;;;;;3.13;1.93;;;16.00;99.90;;;;;;5009885;28;20624;-90
2021/08/23 03:04:48;;;;;;;2.87;1.37;;;16.00;99.90;;;;;;5009718;28;20221;-90
2021/08/23 03:07:14;;;;;;;7.43;1.30;;;16.00;99.90;;;;;;5010495;28;20229;-90
2021/08/23 03:09:39;;;;;;;4.17;1.80;;;15.90;99.90;;;;;;5026228;28;20196;-90
2021/08/23 03:12:06;;;;;;;2.80;2.13;;;15.90;99.90;;;;;;5010334;28;20226;-90
2021/08/23 03:14:32;;;;;;;1.30;1.20;;;15.90;99.90;;;;;;5025947;28;20218;-89
2021/08/23 03:16:58;;;;;;;5.27;1.60;;;15.90;99.90;;;;;;5010308;28;20223;-90
2021/08/23 03:19:23;;;;;;;3.27;1.13;;;15.90;99.90;;;;;;5027086;28;20209;-90
2021/08/23 03:21:49;;;;;;;4.80;1.63;;;15.90;99.90;;;;;;5027129;28;20186;-91
2021/08/23 03:24:15;;;;;;;1.90;1.57;;;15.90;99.90;;;;;;5011846;28;20682;-90
2021/08/23 03:26:41;;;;;;;2.13;1.30;;;15.90;99.90;;;;;;5035524;28;20235;-90
2021/08/23 03:29:08;;;;;;;2.00;1.80;;;15.80;99.90;;;;;;5026463;28;20217;-91
2021/08/23 03:31:34;;;;;;;1.90;1.40;;;15.80;99.90;;;;;;5010639;28;20243;-90
2021/08/23 03:34:00;;;;;;;3.00;1.63;;;15.80;99.90;;;;;;5010224;28;20291;-90
2021/08/23 03:36:25;;;;;;;1.73;1.27;;;15.80;99.90;;;;;;5013445;28;20193;-90
2021/08/23 03:38:51;;;;;;;2.07;1.60;;;15.80;99.90;;;;;;5029208;28;20214;-90
2021/08/23 03:41:17;;;;;;;2.47;1.20;;;15.80;99.90;;;;;;5029684;28;20301;-90
2021/08/23 03:43:43;;;;;;;2.07;1.60;;;15.90;99.90;;;;;;5039194;28;20697;-91
2021/08/23 03:46:09;;;;;;;3.73;1.60;;;15.90;99.90;;;;;;5030038;28;20229;-90
2021/08/23 03:48:35;;;;;;;1.80;1.50;;;15.90;99.90;;;;;;5014153;28;20194;-90
2021/08/23 03:51:01;;;;;;;1.93;1.50;;;15.90;99.90;;;;;;5014133;28;20690;-90
2021/08/23 03:53:26;;;;;;;3.90;1.87;;;15.90;99.90;;;;;;5012496;28;20687;-90
2021/08/23 03:55:52;;;;;;;2.10;1.53;;;15.80;99.90;;;;;;5029322;28;20220;-90
2021/08/23 03:58:18;;;;;;;5.43;1.73;;;15.80;99.90;;;;;;5012952;28;20226;-90
2021/08/23 04:00:43;;;;;;;2.13;1.23;;;15.70;99.90;;;;;;5029732;28;20243;-90
2021/08/23 04:03:09;;;;;;;3.73;1.30;;;15.70;99.90;;;;;;5013940;28;20194;-90
2021/08/23 04:05:35;;;;;;;2.30;1.67;;;15.70;99.90;;;;;;5029196;28;20682;-90
2021/08/23 04:08:01;;;;;;;4.70;2.43;;;15.70;99.90;;;;;;5028774;28;20713;-90
2021/08/23 04:10:27;;;;;;;3.37;1.93;;;15.70;99.90;;;;;;5011762;28;20276;-90
2021/08/23 04:12:53;;;;;;;1.27;1.10;;;15.70;99.90;;;;;;5036764;28;20268;-90
2021/08/23 04:15:18;;;;;;;2.07;1.40;;;15.70;99.90;;;;;;5014017;28;20289;-90
2021/08/23 04:17:44;;;;;;;1.70;1.20;;;15.60;99.90;;;;;;5036935;28;20230;-90
2021/08/23 04:20:12;;;;;;;1.13;1.10;;;15.60;99.90;;;;;;5013054;28;20206;-90
2021/08/23 04:22:38;;;;;;;1.50;1.40;;;15.50;99.90;;;;;;5029988;28;20776;-90
2021/08/23 04:25:04;;;;;;;2.57;0.90;;;15.50;99.90;;;;;;5003601;28;20697;-90
2021/08/23 04:27:30;;;;;;;2.77;1.23;;;15.60;99.90;;;;;;5039463;28;20280;-90
2021/08/23 04:29:56;;;;;;;2.53;1.37;;;15.50;99.90;;;;;;5028769;28;21259;-90
2021/08/23 04:32:22;;;;;;;2.07;1.30;;;15.60;99.90;;;;;;5029454;28;20210;-90
2021/08/23 04:34:47;;;;;;;2.47;1.20;;;15.50;99.90;;;;;;5012454;28;20225;-90
2021/08/23 04:37:13;;;;;;;1.40;0.97;;;15.60;99.90;;;;;;5012785;28;20225;-90
2021/08/23 04:39:39;;;;;;;6.60;0.90;;;15.60;99.90;;;;;;5029279;28;20178;-90
2021/08/23 04:42:06;;;;;;;3.27;1.40;;;15.60;99.90;;;;;;5029797;28;20246;-90
2021/08/23 04:44:31;;;;;;;3.80;1.00;;;15.60;99.90;;;;;;5027626;28;20207;-90
2021/08/23 04:46:57;;;;;;;2.97;0.90;;;15.60;99.90;;;;;;5028685;28;20217;-90
2021/08/23 04:49:23;;;;;;;1.40;1.27;;;15.60;99.90;;;;;;5012104;28;20209;-90
2021/08/23 04:51:49;;;;;;;1.87;1.30;;;15.70;99.90;;;;;;5011381;28;20191;-90
2021/08/23 04:54:14;;;;;;;2.07;1.23;;;15.70;99.90;;;;;;5028506;28;20299;-90
2021/08/23 04:56:40;;;;;;;2.83;1.10;;;15.70;99.90;;;;;;5012132;28;20237;-90
2021/08/23 04:59:06;;;;;;;1.07;0.80;;;15.70;99.90;;;;;;5028276;28;20302;-90
2021/08/23 05:01:32;;;;;;;2.13;1.40;;;15.80;99.90;;;;;;5011931;28;20218;-89
2021/08/23 05:03:58;;;;;;;4.77;2.57;;;15.80;99.90;;;;;;5011271;28;20218;-90
2021/08/23 05:06:23;;;;;;;2.73;1.43;;;15.90;99.90;;;;;;5011542;28;20178;-90
2021/08/23 05:08:49;;;;;;;3.60;1.33;;;15.90;99.90;;;;;;5010784;28;20213;-90
2021/08/23 05:11:15;;;;;;;2.00;1.20;;;15.90;99.90;;;;;;5012015;28;20295;-91
2021/08/23 05:13:41;;;;;;;3.40;1.70;;;15.90;99.90;;;;;;5012573;28;20214;-90
2021/08/23 05:16:07;;;;;;;2.43;1.40;;;16.00;99.90;;;;;;5011546;28;20241;-89
2021/08/23 05:18:32;;;;;;;2.47;1.23;;;16.00;99.90;;;;;;5012122;28;20217;-89
2021/08/23 05:21:03;;;;;;;2.40;1.53;;;16.00;99.90;;;;;;5034432;28;20279;-88
2021/08/23 05:23:29;;;;;;;1.80;1.23;;;16.10;99.90;;;;;;5012043;28;20222;-89
2021/08/23 05:25:54;;;;;;;3.13;1.43;;;16.20;99.90;;;;;;5019713;28;20765;-92
2021/08/23 05:28:20;;;;;;;1.50;1.40;;;16.40;99.90;;;;;;5012338;28;20251;-90
2021/08/23 05:30:46;;;;;;;3.20;1.70;;;16.50;99.90;;;;;;5027350;28;20203;-90
2021/08/23 05:33:12;;;;;;;6.23;1.27;;;16.50;99.90;;;;;;5011828;28;20189;-89
2021/08/23 05:35:40;;;;;;;5.67;1.20;;;16.60;99.90;;;;;;5019810;28;20320;-90
2021/08/23 05:38:07;;;;;;;2.23;0.90;;;16.60;99.90;;;;;;5021516;28;20226;-91
2021/08/23 05:40:34;;;;;;;1.33;1.10;;;16.70;99.90;;;;;;5034234;28;20713;-91
2021/08/23 05:43:02;;;;;;;2.97;1.20;;;16.80;99.90;;;;;;5012972;28;20225;-90
2021/08/23 05:45:28;;;;;;;3.47;1.70;;;17.20;99.90;;;;;;5015463;28;20190;-91
2021/08/23 05:47:54;;;;;;;1.00;1.00;;;17.80;99.90;;;;;;5029763;28;20222;-91
2021/08/23 05:50:20;;;;;;;2.53;1.47;;;18.90;99.90;;;;;;5013848;28;20229;-92
2021/08/23 05:52:46;;;;;;;2.33;1.23;;;20.10;99.90;;;;;;5037647;28;20215;-96
2021/08/23 05:55:12;;;;;;;3.77;1.20;;;21.00;99.90;;;;;;5053517;28;20302;-96
2021/08/23 05:57:41;;;;;;;1.30;1.00;;;21.80;99.90;;;;;;5049649;28;20222;-94
2021/08/23 06:00:19;;;;;;;6.13;1.53;;;23.10;99.90;;;;;;5054181;28;20195;-95
2021/08/23 06:02:46;;;;;;;1.47;1.17;;;23.30;99.90;;;;;;5032011;28;20293;-96
2021/08/23 06:05:12;;;;;;;1.63;1.03;;;23.50;99.90;;;;;;5047166;28;20251;-96
2021/08/23 06:07:40;;;;;;;3.07;1.03;;;23.80;99.90;;;;;;5041403;28;20238;-94
2021/08/23 06:10:06;;;;;;;2.20;1.20;;;24.20;99.90;;;;;;5036770;28;20272;-92
2021/08/23 06:12:34;;;;;;;1.97;0.90;;;25.20;99.90;;;;;;5030422;28;20275;-96
2021/08/23 06:15:00;;;;;;;2.42;0.98;;;25.20;99.90;;;;;;5038777;28;20777;-93
2021/08/23 06:17:29;;;;;;;1.90;1.17;;;25.30;99.90;;;;;;5049265;28;20217;-95
2021/08/23 06:19:58;;;;;;;3.53;1.33;;;24.90;99.90;;;;;;5036953;28;20223;-96
2021/08/23 06:22:25;;;;;;;2.22;1.33;;;24.30;99.90;;;;;;5033110;28;20236;-95
2021/08/23 06:24:52;;;;;;;4.28;1.15;;;24.70;99.90;;;;;;5048400;28;20200;-95
2021/08/23 06:27:22;;;;;;;4.00;1.13;;;23.60;99.90;;;;;;5064943;28;20564;-95
2021/08/23 06:29:48;;;;;;;1.23;1.00;;;23.80;99.90;;;;;;5047956;28;20248;-96
2021/08/23 06:32:36;;;;;;;1.55;1.15;;;25.40;99.90;;;;;;5038915;28;20214;-96
2021/08/23 06:35:03;;;;;;;2.95;1.35;;;25.80;99.90;;;;;;5047721;28;20214;-95
2021/08/23 06:37:31;;;;;;;2.67;1.27;;;26.90;99.90;;;;;;5042158;28;20210;-95
2021/08/23 06:40:04;;;;;;;5.15;1.50;;;27.80;99.90;;;;;;5038421;28;20210;-93
2021/08/23 06:42:31;;;;;;;2.25;0.90;;;26.60;99.90;;;;;;5016222;28;20186;-94
2021/08/23 06:44:56;;;;;;;0.90;0.70;;;25.00;99.90;;;;;;5015276;28;20246;-92
2021/08/23 06:47:23;;;;;;;0.82;0.82;;;24.60;99.90;;;;;;5013625;28;20214;-93
2021/08/23 06:49:49;;;;;;;1.50;1.10;;;23.70;99.90;;;;;;5030342;28;20220;-93
2021/08/23 06:52:15;;;;;;;2.30;1.08;;;22.90;99.90;;;;;;5013896;28;20206;-94
2021/08/23 06:54:41;;;;;;;1.88;1.10;;;23.30;99.90;;;;;;5013617;28;20186;-94
2021/08/23 06:57:07;;;;;;;8.23;1.20;;;24.70;99.90;;;;;;5030466;28;20195;-93
2021/08/23 06:59:35;;;;;;;2.15;1.20;;;25.20;99.90;;;;;;5030973;28;20325;-92
2021/08/23 07:02:01;;;;;;;1.95;1.02;;;24.80;99.90;;;;;;5014064;28;20265;-93
2021/08/23 07:04:26;;;;;;;1.67;0.82;;;24.00;99.90;;;;;;5028784;28;20241;-93
2021/08/23 07:06:52;;;;;;;2.47;1.35;;;24.70;99.90;;;;;;5012909;28;20217;-94
2021/08/23 07:09:18;;;;;;;1.38;1.17;;;25.00;99.90;;;;;;5014997;28;20584;-93
2021/08/23 07:11:44;;;;;;;1.67;1.05;;;24.20;99.90;;;;;;5014795;28;20706;-92
2021/08/23 07:14:10;;;;;;;5.10;1.20;;;24.00;99.90;;;;;;5015170;28;20288;-93
2021/08/23 07:16:35;;;;;;;1.30;1.20;;;24.20;99.90;;;;;;5033057;28;20222;-94
2021/08/23 07:19:01;;;;;;;1.35;1.00;;;23.10;99.90;;;;;;5041070;28;20271;-93
2021/08/23 07:21:27;;;;;;;2.78;1.10;;;23.60;99.90;;;;;;5017900;28;20240;-94
2021/08/23 07:23:53;;;;;;;3.78;1.20;;;24.80;99.90;;;;;;5015551;28;20210;-92
2021/08/23 07:26:19;;;;;;;2.63;1.08;;;27.40;99.90;;;;;;5025092;28;20245;-94
2021/08/23 07:28:46;;;;;;;2.55;1.20;;;28.20;99.90;;;;;;5033410;28;21313;-92
2021/08/23 07:31:12;;;;;;;2.58;0.75;;;27.20;99.90;;;;;;5016398;28;20632;-93
2021/08/23 07:33:37;;;;;;;2.03;1.50;;;24.40;99.90;;;;;;5015988;28;20281;-93
2021/08/23 07:36:04;;;;;;;3.42;0.98;;;23.40;99.90;;;;;;5038674;28;20270;-93
2021/08/23 07:38:29;;;;;;;1.23;1.00;;;22.90;99.90;;;;;;5015115;28;20309;-92
2021/08/23 07:40:55;;;;;;;1.98;0.90;;;22.10;99.90;;;;;;5016775;28;20216;-94
2021/08/23 07:43:21;;;;;;;2.75;1.15;;;21.60;99.90;;;;;;5017243;28;20238;-93
2021/08/23 07:45:48;;;;;;;1.48;1.10;;;21.20;99.90;;;;;;5015064;28;20240;-93
2021/08/23 07:48:14;;;;;;;2.92;1.20;;;20.80;99.90;;;;;;5041636;28;20227;-92
2021/08/23 07:50:40;;;;;;;5.13;1.50;;;20.90;99.90;;;;;;5038091;28;20259;-92
2021/08/23 07:53:06;;;;;;;3.95;1.05;;;21.30;99.90;;;;;;5014923;28;20682;-92
2021/08/23 07:55:32;;;;;;;1.83;1.42;;;21.70;99.90;;;;;;5015872;28;20256;-93
2021/08/23 07:57:59;;;;;;;2.17;1.05;;;22.00;99.90;;;;;;5031968;28;20260;-94
2021/08/23 08:00:25;;;;;;;5.22;1.27;;;23.90;99.90;;;;;;5031090;28;20190;-93
2021/08/23 08:02:50;;;;;;;6.25;1.00;;;25.40;99.90;;;;;;5021100;28;20720;-93
2021/08/23 08:05:16;;;;;;;1.00;0.90;;;26.80;99.90;;;;;;5030309;28;20210;-93
2021/08/23 08:07:42;;;;;;;1.25;1.15;;;26.90;99.90;;;;;;5038266;28;20253;-92
2021/08/23 08:10:10;;;;;;;1.27;1.02;;;26.30;99.90;;;;;;5013330;28;20771;-93
2021/08/23 08:12:36;;;;;;;0.88;0.85;;;25.60;99.90;;;;;;5038636;28;20237;-95
2021/08/23 08:15:04;;;;;;;2.53;1.10;;;25.70;99.90;;;;;;5035995;28;20183;-95
2021/08/23 08:17:30;;;;;;;1.17;0.95;;;26.30;99.90;;;;;;5032132;28;20233;-93
2021/08/23 08:19:56;;;;;;;1.88;1.30;;;24.60;99.90;;;;;;5030058;28;20249;-94
2021/08/23 08:22:22;;;;;;;2.95;1.20;;;23.30;99.90;;;;;;5014332;28;20244;-93
2021/08/23 08:24:47;;;;;;;1.83;0.82;;;23.10;99.90;;;;;;5031364;28;21145;-94
2021/08/23 08:27:13;;;;;;;2.80;0.82;;;25.10;99.90;;;;;;5014750;28;20232;-94
2021/08/23 08:29:40;;;;;;;1.83;1.08;;;26.40;99.90;;;;;;5031227;28;20230;-94
2021/08/23 08:32:06;;;;;;;3.60;0.95;;;26.70;99.90;;;;;;5029467;28;20304;-94
2021/08/23 08:34:33;;;;;;;1.80;0.95;;;26.60;99.90;;;;;;5012765;28;20218;-95
2021/08/23 08:37:01;;;;;;;1.33;1.15;;;25.40;99.90;;;;;;5031255;28;20213;-94
2021/08/23 08:39:27;;;;;;;2.50;0.95;;;23.50;99.90;;;;;;5032031;28;20190;-93
2021/08/23 08:41:52;;;;;;;2.47;1.05;;;22.90;99.90;;;;;;5039094;28;20206;-92
2021/08/23 08:44:18;;;;;;;0.90;0.88;;;22.30;99.90;;;;;;5031083;28;20224;-92
2021/08/23 08:46:45;;;;;;;1.73;1.08;;;23.30;99.90;;;;;;5036486;28;20706;-93
2021/08/23 08:49:11;;;;;;;0.88;0.77;;;24.30;99.90;;;;;;5022069;28;20237;-95
2021/08/23 08:51:38;;;;;;;0.95;0.85;;;23.70;99.90;;;;;;5013221;28;20195;-94
2021/08/23 08:54:05;;;;;;;1.80;1.02;;;23.20;99.90;;;;;;5038606;28;20187;-94
2021/08/23 08:56:33;;;;;;;0.80;0.80;;;23.70;99.90;;;;;;5030989;28;20913;-93
2021/08/23 08:58:59;;;;;;;4.13;1.15;;;22.90;99.90;;;;;;5012968;28;20225;-93
2021/08/23 09:01:25;;;;;;;1.65;0.93;;;22.70;99.90;;;;;;5029180;28;20218;-95
2021/08/23 09:03:51;;;;;;;1.27;1.05;;;23.10;99.90;;;;;;5037918;28;20235;-95
2021/08/23 09:06:17;;;;;;;1.15;0.80;;;22.80;99.90;;;;;;5032815;28;20722;-93
2021/08/23 09:08:46;;;;;;;3.55;1.10;;;23.40;99.90;;;;;;5031126;28;20849;-93
2021/08/23 09:11:14;;;;;;;1.45;1.02;;;23.70;99.90;;;;;;5036373;28;20233;-94
2021/08/23 09:13:46;;;;;;;1.02;0.85;;;23.60;99.90;;;;;;5036497;28;20210;-93
2021/08/23 09:16:13;;;;;;;2.00;1.15;;;24.30;99.90;;;;;;5036693;28;20594;-94
2021/08/23 09:18:40;;;;;;;2.55;1.38;;;24.20;99.90;;;;;;5029875;28;20263;-93
2021/08/23 09:21:07;;;;;;;0.95;0.95;;;23.40;99.90;;;;;;5031359;28;21064;-93
2021/08/23 09:23:38;;;;;;;1.70;0.85;;;23.60;99.90;;;;;;5016366;28;20218;-93
2021/08/23 09:26:12;;;;;;;4.10;0.93;;;22.90;99.90;;;;;;5040695;28;20263;-94
2021/08/23 09:28:40;;;;;;;0.93;0.70;;;22.80;99.90;;;;;;5039700;28;20218;-92
2021/08/23 09:31:10;;;;;;;4.00;1.02;;;23.40;99.90;;;;;;5030792;28;20222;-93
2021/08/23 09:33:44;;;;;;;0.88;0.85;;;24.10;99.90;;;;;;5031949;28;20175;-95
2021/08/23 09:36:11;;;;;;;3.60;0.93;;;24.30;99.90;;;;;;5014648;28;20191;-93
2021/08/23 09:38:39;;;;;;;2.45;1.20;;;23.70;99.90;;;;;;5020236;28;20296;-93
2021/08/23 09:41:05;;;;;;;3.70;1.00;;;23.50;99.90;;;;;;5037424;28;20226;-95
2021/08/23 09:43:34;;;;;;;5.60;0.90;;;22.80;99.90;;;;;;5028461;28;20228;-93
2021/08/23 09:46:11;;;;;;;1.50;0.65;;;22.30;99.90;;;;;;5019743;28;20217;-94
2021/08/23 09:48:52;;;;;;;1.33;1.10;;;22.00;99.90;;;;;;5035300;28;20213;-93
2021/08/23 09:51:29;;;;;;;1.40;1.13;;;22.30;99.90;;;;;;5036914;28;20206;-92
2021/08/23 09:54:10;;;;;;;1.65;0.80;;;22.70;99.90;;;;;;5037897;28;20689;-93
2021/08/23 09:56:53;;;;;;;0.80;0.80;;;22.90;99.90;;;;;;5039023;28;20904;-93
2021/08/23 09:59:21;;;;;;;2.10;1.30;;;22.60;99.90;;;;;;5039623;28;20844;-91
2021/08/23 10:01:48;;;;;;;1.30;1.20;;;22.00;99.90;;;;;;5029649;28;20828;-93
2021/08/23 10:04:15;;;;;;;3.38;1.17;;;22.20;99.90;;;;;;5022942;28;20298;-94
2021/08/23 10:06:43;;;;;;;4.85;1.20;;;22.10;99.90;;;;;;5038771;28;20224;-93
2021/08/23 10:09:12;;;;;;;1.73;1.17;;;22.20;99.90;;;;;;5037346;28;20265;-93
2021/08/23 10:11:39;;;;;;;1.10;0.98;;;22.30;99.90;;;;;;5037089;28;20237;-93
2021/08/23 10:14:07;;;;;;;3.97;1.60;;;22.50;99.90;;;;;;5029692;28;20214;-93
2021/08/23 10:16:35;;;;;;;3.70;1.67;;;22.70;99.90;;;;;;5028712;28;20573;-93
2021/08/23 10:19:02;;;;;;;3.47;1.15;;;23.60;99.90;;;;;;5035195;28;20221;-92
2021/08/23 10:21:29;;;;;;;1.52;1.20;;;23.70;99.90;;;;;;5013926;28;20716;-94
2021/08/23 10:23:56;;;;;;;2.15;1.05;;;23.70;99.90;;;;;;5030121;28;20234;-93
2021/08/23 10:26:22;;;;;;;1.77;0.90;;;23.50;99.90;;;;;;5041165;28;20226;-93
2021/08/23 10:28:48;;;;;;;2.80;1.13;;;23.50;99.90;;;;;;5028876;28;20213;-94
2021/08/23 10:31:17;;;;;;;1.05;0.75;;;23.20;99.90;;;;;;5036209;28;20241;-92
2021/08/23 10:33:47;;;;;;;2.38;1.10;;;22.70;99.90;;;;;;5039427;28;20285;-94
2021/08/23 10:36:16;;;;;;;1.25;1.00;;;22.30;99.90;;;;;;5041395;28;20187;-94
2021/08/23 10:38:47;;;;;;;2.00;0.98;;;22.60;99.90;;;;;;5039378;28;20240;-93
2021/08/23 10:41:16;;;;;;;10.60;1.92;;;23.90;99.90;;;;;;5039820;28;20221;-93
2021/08/23 10:43:46;;;;;;;1.63;1.42;;;24.90;99.90;;;;;;5038362;28;20221;-94
2021/08/23 10:46:39;;;;;;;2.60;1.27;;;24.10;99.90;;;;;;5037666;28;20229;-94
2021/08/23 10:49:16;;;;;;;6.15;1.40;;;22.60;99.90;;;;;;5038224;28;20311;-93
2021/08/23 10:52:03;;;;;;;2.55;0.90;;;22.30;99.90;;;;;;5033567;28;20638;-95
2021/08/23 10:54:35;;;;;;;1.33;0.98;;;22.30;99.90;;;;;;5041215;28;20187;-95
2021/08/23 10:57:00;;;;;;;5.30;1.25;;;22.20;99.90;;;;;;5039696;28;20666;-93
2021/08/23 10:59:47;;;;;;;1.55;1.10;;;22.70;99.90;;;;;;5035521;28;20275;-92
2021/08/23 11:02:16;;;;;;;1.33;1.23;;;22.60;99.90;;;;;;5039122;28;20226;-94
2021/08/23 11:04:56;;;;;;;2.53;1.00;;;22.70;99.90;;;;;;5035414;28;20218;-93
2021/08/23 11:07:28;;;;;;;3.00;1.45;;;22.10;99.90;;;;;;5029898;28;20232;-93
2021/08/23 11:10:16;;;;;;;3.72;0.80;;;22.20;99.90;;;;;;5036139;28;20626;-92
2021/08/23 11:12:47;;;;;;;1.77;0.80;;;23.50;99.90;;;;;;5036987;28;20522;-92
2021/08/23 11:15:20;;;;;;;4.57;2.00;;;24.10;99.90;;;;;;5041514;28;20189;-93
2021/08/23 11:17:55;;;;;;;1.63;1.10;;;22.80;99.90;;;;;;5039452;28;20310;-93
2021/08/23 11:20:24;;;;;;;7.78;2.38;;;23.30;99.90;;;;;;5038200;28;20206;-92
2021/08/23 11:23:01;;;;;;;9.63;1.35;;;22.50;99.90;;;;;;5038169;28;20284;-93
2021/08/23 11:25:32;;;;;;;1.30;0.82;;;22.80;99.90;;;;;;5036992;28;20317;-92
2021/08/23 11:28:00;;;;;;;2.88;1.10;;;23.70;99.90;;;;;;5036296;28;20226;-93
2021/08/23 11:30:43;;;;;;;2.60;1.00;;;23.90;99.90;;;;;;5037659;28;20642;-93
2021/08/23 11:33:11;;;;;;;2.92;0.82;;;22.70;99.90;;;;;;5035952;28;20280;-92
2021/08/23 11:35:38;;;;;;;3.30;0.88;;;22.60;99.90;;;;;;5029188;28;20218;-93
2021/08/23 11:38:05;;;;;;;1.23;1.00;;;22.20;99.90;;;;;;5027908;28;20293;-93
2021/08/23 11:40:33;;;;;;;4.63;0.93;;;22.30;99.90;;;;;;5038181;28;20210;-95
2021/08/23 11:43:01;;;;;;;0.80;0.80;;;22.70;99.90;;;;;;5040631;28;20214;-94
2021/08/23 11:45:31;;;;;;;4.45;1.42;;;22.60;99.90;;;;;;5022191;28;20256;-93
2021/08/23 11:47:57;;;;;;;1.25;1.10;;;22.30;99.90;;;;;;5037634;28;20234;-94
2021/08/23 11:50:23;;;;;;;3.70;1.05;;;21.50;99.90;;;;;;5028514;28;20206;-94
2021/08/23 11:52:50;;;;;;;2.92;0.93;;;21.30;99.90;;;;;;5033813;28;20214;-94
2021/08/23 11:55:27;;;;;;;1.10;0.90;;;21.60;99.90;;;;;;5011130;28;20756;-93
2021/08/23 11:58:04;;;;;;;3.42;1.00;;;22.30;99.90;;;;;;5031875;28;20623;-94
2021/08/23 12:00:31;;;;;;;1.10;0.60;;;22.50;99.90;;;;;;5042452;28;20190;-94
2021/08/23 12:03:05;;;;;;;1.67;0.90;;;22.90;99.90;;;;;;5033071;28;20218;-96
2021/08/23 12:05:41;;;;;;;1.33;0.85;;;22.70;99.90;;;;;;5043393;28;20753;-93
2021/08/23 12:08:09;;;;;;;0.73;0.73;;;21.50;99.90;;;;;;5045291;28;20217;-94
2021/08/23 12:10:37;;;;;;;1.00;0.82;;;21.70;99.90;;;;;;5006350;28;20316;-92
2021/08/23 12:13:17;;;;;;;1.50;1.20;;;21.80;99.90;;;;;;5038175;28;20711;-94
2021/08/23 12:16:01;;;;;;;1.83;1.00;;;21.60;99.90;;;;;;5016823;28;20189;-93
2021/08/23 12:18:37;;;;;;;1.60;1.00;;;22.30;99.90;;;;;;5044003;28;20630;-94
2021/08/23 12:21:16;;;;;;;1.70;1.00;;;22.60;99.90;;;;;;5042204;28;20232;-93
2021/08/23 12:23:43;;;;;;;1.13;1.03;;;22.00;99.90;;;;;;5042907;28;20692;-93
2021/08/23 12:26:12;;;;;;;4.13;0.97;;;21.90;99.90;;;;;;5044431;28;20222;-94
2021/08/23 12:28:49;;;;;;;0.80;0.80;;;22.10;99.90;;;;;;5027336;28;20226;-94
2021/08/23 12:31:16;;;;;;;2.10;1.13;;;22.00;99.90;;;;;;5025833;28;20682;-93
2021/08/23 12:33:42;;;;;;;3.17;0.90;;;21.80;99.90;;;;;;5035701;28;20174;-93
2021/08/23 12:36:08;;;;;;;1.60;1.00;;;20.90;99.90;;;;;;5035262;28;20191;-94
2021/08/23 12:38:34;;;;;;;4.03;0.97;;;20.70;99.90;;;;;;5017616;28;20214;-94
2021/08/23 12:41:00;;;;;;;1.23;0.90;;;21.20;99.90;;;;;;5016218;28;20215;-93
2021/08/23 12:43:25;;;;;;;1.60;0.80;;;21.40;99.90;;;;;;5033302;28;20218;-93
2021/08/23 12:45:51;;;;;;;2.67;1.03;;;21.60;99.90;;;;;;5033117;28;20194;-95
2021/08/23 12:48:17;;;;;;;2.10;0.70;;;21.90;99.90;;;;;;5015931;28;20211;-94
2021/08/23 12:50:43;;;;;;;4.73;1.20;;;21.80;99.90;;;;;;5016970;28;20206;-93